createdAt,value
2023-02-12T00:00:53.770Z,7.70
2023-02-12T00:01:56.086Z,7.70
2023-02-12T00:02:58.469Z,7.60
2023-02-12T00:04:01.110Z,7.60
2023-02-12T00:05:03.417Z,7.70
2023-02-12T00:06:06.512Z,7.70
2023-02-12T00:07:09.017Z,7.70
2023-02-12T00:08:16.309Z,7.60
2023-02-12T00:09:18.616Z,7.60
2023-02-12T00:10:20.929Z,7.60
2023-02-12T00:11:28.797Z,7.60
2023-02-12T00:12:31.116Z,7.60
2023-02-12T00:13:33.345Z,7.60
2023-02-12T00:14:37.585Z,7.60
2023-02-12T00:15:41.260Z,7.60
2023-02-12T00:16:43.528Z,7.60
2023-02-12T00:17:45.951Z,7.60
2023-02-12T00:18:51.284Z,7.60
2023-02-12T00:19:53.528Z,7.60
2023-02-12T00:20:58.868Z,7.60
2023-02-12T00:22:01.153Z,7.60
2023-02-12T00:23:03.845Z,7.60
2023-02-12T00:24:06.349Z,7.60
2023-02-12T00:25:08.735Z,7.60
2023-02-12T00:26:13.790Z,7.60
2023-02-12T00:27:22.200Z,7.60
2023-02-12T00:28:24.962Z,7.60
2023-02-12T00:29:27.583Z,7.60
2023-02-12T00:30:29.835Z,7.60
2023-02-12T00:31:32.696Z,7.60
2023-02-12T00:32:35.005Z,7.60
2023-02-12T00:33:37.510Z,7.50
2023-02-12T00:34:40.410Z,7.50
2023-02-12T00:35:42.718Z,7.60
2023-02-12T00:36:45.159Z,7.60
2023-02-12T00:37:47.541Z,7.60
2023-02-12T00:38:52.768Z,7.60
2023-02-12T00:39:55.032Z,7.50
2023-02-12T00:40:57.470Z,7.60
2023-02-12T00:41:59.905Z,7.60
2023-02-12T00:43:02.149Z,7.60
2023-02-12T00:44:04.832Z,7.60
2023-02-12T00:45:10.490Z,7.60
2023-02-12T00:46:13.338Z,7.60
2023-02-12T00:47:17.041Z,7.60
2023-02-12T00:48:19.308Z,7.70
2023-02-12T00:49:21.549Z,7.60
2023-02-12T00:50:23.913Z,7.60
2023-02-12T00:51:26.216Z,7.60
2023-02-12T00:52:28.508Z,7.60
2023-02-12T00:53:30.879Z,7.60
2023-02-12T00:54:33.190Z,7.60
2023-02-12T00:55:35.776Z,7.60
2023-02-12T00:56:38.075Z,7.60
2023-02-12T00:57:40.380Z,7.60
2023-02-12T00:58:42.621Z,7.60
2023-02-12T00:59:44.898Z,7.60
2023-02-12T01:00:47.322Z,7.60
2023-02-12T01:01:50.125Z,7.60
2023-02-12T01:02:52.901Z,7.50
2023-02-12T01:03:55.212Z,7.60
2023-02-12T01:04:58.689Z,7.60
2023-02-12T01:06:01.117Z,7.60
2023-02-12T01:07:03.636Z,7.60
2023-02-12T01:08:06.257Z,7.60
2023-02-12T01:09:08.763Z,7.60
2023-02-12T01:10:12.104Z,7.60
2023-02-12T01:11:14.674Z,7.50
2023-02-12T01:12:17.082Z,7.60
2023-02-12T01:13:19.440Z,7.50
2023-02-12T01:14:23.184Z,7.60
2023-02-12T01:15:25.547Z,7.50
2023-02-12T01:16:28.103Z,7.60
2023-02-12T01:17:31.760Z,7.60
2023-02-12T01:18:34.393Z,7.50
2023-02-12T01:19:36.688Z,7.50
2023-02-12T01:20:40.274Z,7.50
2023-02-12T01:21:42.707Z,7.50
2023-02-12T01:22:45.313Z,7.50
2023-02-12T01:23:49.230Z,7.50
2023-02-12T01:24:51.568Z,7.50
2023-02-12T01:25:54.417Z,7.50
2023-02-12T01:26:56.902Z,7.50
2023-02-12T01:27:59.221Z,7.50
2023-02-12T01:29:03.732Z,7.50
2023-02-12T01:30:09.573Z,7.50
2023-02-12T01:31:18.393Z,7.50
2023-02-12T01:32:25.877Z,7.50
2023-02-12T01:33:28.162Z,7.50
2023-02-12T01:34:30.433Z,7.50
2023-02-12T01:35:32.732Z,7.50
2023-02-12T01:36:35.376Z,7.50
2023-02-12T01:37:38.550Z,7.50
2023-02-12T01:38:40.889Z,7.50
2023-02-12T01:39:43.911Z,7.50
2023-02-12T01:40:46.195Z,7.50
2023-02-12T01:41:48.763Z,7.50
2023-02-12T01:42:51.018Z,7.50
2023-02-12T01:44:28.732Z,7.50
2023-02-12T01:45:36.934Z,7.40
2023-02-12T01:46:39.946Z,7.40
2023-02-12T01:47:45.236Z,7.40
2023-02-12T01:48:48.283Z,7.40
2023-02-12T01:49:50.742Z,7.40
2023-02-12T01:50:54.361Z,7.40
2023-02-12T01:52:04.377Z,7.40
2023-02-12T01:53:06.741Z,7.40
2023-02-12T01:54:12.090Z,7.40
2023-02-12T01:55:15.763Z,7.30
2023-02-12T01:56:18.582Z,7.30
2023-02-12T01:57:21.204Z,7.30
2023-02-12T01:58:25.448Z,7.30
2023-02-12T01:59:28.640Z,7.30
2023-02-12T02:00:30.966Z,7.20
2023-02-12T02:01:35.001Z,7.30
2023-02-12T02:02:39.224Z,7.20
2023-02-12T02:03:45.390Z,7.20
2023-02-12T02:04:55.806Z,7.20
2023-02-12T02:06:04.280Z,7.20
2023-02-12T02:07:10.887Z,7.20
2023-02-12T02:08:13.614Z,7.20
2023-02-12T02:09:17.820Z,7.20
2023-02-12T02:10:20.318Z,7.20
2023-02-12T02:11:44.129Z,7.20
2023-02-12T02:13:05.409Z,7.20
2023-02-12T02:14:26.331Z,7.10
2023-02-12T02:15:31.172Z,7.10
2023-02-12T02:16:36.438Z,7.10
2023-02-12T02:18:03.024Z,7.10
2023-02-12T02:19:23.369Z,7.10
2023-02-12T02:21:05.415Z,7.10
2023-02-12T02:22:07.663Z,7.10
2023-02-12T02:23:12.933Z,7.10
2023-02-12T02:24:45.862Z,7.10
2023-02-12T02:26:16.009Z,7.10
2023-02-12T02:27:56.449Z,7.10
2023-02-12T02:29:10.678Z,7.00
2023-02-12T02:30:45.657Z,7.00
2023-02-12T02:31:58.984Z,7.00
2023-02-12T02:33:30.467Z,7.00
2023-02-12T02:34:42.451Z,7.00
2023-02-12T02:36:03.089Z,6.90
2023-02-12T02:37:15.952Z,6.90
2023-02-12T02:38:33.446Z,6.90
2023-02-12T02:39:41.283Z,6.90
2023-02-12T02:41:04.918Z,6.90
2023-02-12T02:42:26.636Z,6.90
2023-02-12T02:43:35.401Z,6.90
2023-02-12T02:44:52.311Z,6.90
2023-02-12T02:46:01.332Z,6.90
2023-02-12T02:47:08.899Z,7.00
2023-02-12T02:48:34.154Z,6.90
2023-02-12T02:49:59.050Z,7.00
2023-02-12T02:51:13.260Z,7.00
2023-02-12T02:52:22.611Z,7.00
2023-02-12T02:53:33.447Z,7.00
2023-02-12T02:54:52.318Z,7.00
2023-02-12T02:55:58.795Z,7.00
2023-02-12T02:57:09.741Z,7.00
2023-02-12T02:58:23.360Z,7.00
2023-02-12T02:59:34.359Z,7.00
2023-02-12T03:00:58.833Z,7.00
2023-02-12T03:02:14.732Z,7.00
2023-02-12T03:03:22.439Z,7.00
2023-02-12T03:04:35.500Z,7.00
2023-02-12T03:05:45.365Z,7.00
2023-02-12T03:07:08.437Z,6.90
2023-02-12T03:08:24.082Z,6.90
2023-02-12T03:09:59.594Z,6.90
2023-02-12T03:11:12.171Z,6.90
2023-02-12T03:12:27.863Z,7.00
2023-02-12T03:13:34.742Z,7.00
2023-02-12T03:14:45.709Z,7.00
2023-02-12T03:15:56.474Z,7.00
2023-02-12T03:17:08.862Z,7.00
2023-02-12T03:18:30.337Z,7.00
2023-02-12T03:19:47.954Z,7.00
2023-02-12T03:20:55.586Z,7.00
2023-02-12T03:22:06.114Z,7.00
2023-02-12T03:23:24.450Z,7.00
2023-02-12T03:24:47.513Z,7.00
2023-02-12T03:26:01.454Z,6.90
2023-02-12T03:27:10.198Z,6.90
2023-02-12T03:28:22.791Z,6.90
2023-02-12T03:29:25.910Z,6.90
2023-02-12T03:30:52.493Z,6.90
2023-02-12T03:32:22.529Z,6.90
2023-02-12T03:33:36.293Z,6.90
2023-02-12T03:34:59.455Z,6.90
2023-02-12T03:36:07.890Z,6.90
2023-02-12T03:37:17.989Z,6.90
2023-02-12T03:38:41.894Z,6.90
2023-02-12T03:40:05.736Z,6.90
2023-02-12T03:41:26.438Z,6.90
2023-02-12T03:42:41.150Z,6.90
2023-02-12T03:43:56.007Z,6.90
2023-02-12T03:45:09.478Z,6.90
2023-02-12T03:46:24.725Z,6.90
2023-02-12T03:47:59.796Z,6.90
2023-02-12T03:49:15.800Z,6.90
2023-02-12T03:50:26.488Z,6.90
2023-02-12T03:51:44.770Z,6.90
2023-02-12T03:52:47.730Z,6.90
2023-02-12T03:53:50.178Z,6.80
2023-02-12T03:54:52.598Z,6.90
2023-02-12T03:56:04.122Z,6.90
2023-02-12T03:57:14.165Z,6.90
2023-02-12T03:58:21.530Z,6.90
2023-02-12T03:59:25.506Z,6.90
2023-02-12T04:00:27.852Z,6.90
2023-02-12T04:01:31.705Z,6.90
2023-02-12T04:02:34.503Z,6.90
2023-02-12T04:03:36.987Z,6.80
2023-02-12T04:04:39.652Z,6.80
2023-02-12T04:05:42.051Z,6.80
2023-02-12T04:06:47.366Z,6.80
2023-02-12T04:07:51.413Z,6.80
2023-02-12T04:08:56.742Z,6.80
2023-02-12T04:09:59.106Z,6.80
2023-02-12T04:11:07.883Z,6.80
2023-02-12T04:12:41.176Z,6.80
2023-02-12T04:13:59.718Z,6.80
2023-02-12T04:15:10.625Z,6.80
2023-02-12T04:16:43.421Z,6.80
2023-02-12T04:18:08.970Z,6.80
2023-02-12T04:19:16.840Z,6.80
2023-02-12T04:20:41.426Z,6.80
2023-02-12T04:22:00.342Z,6.80
2023-02-12T04:23:16.447Z,6.80
2023-02-12T04:24:35.929Z,6.90
2023-02-12T04:25:49.050Z,6.90
2023-02-12T04:27:30.150Z,6.80
2023-02-12T04:28:45.914Z,6.80
2023-02-12T04:29:56.308Z,6.80
2023-02-12T04:31:20.909Z,6.80
2023-02-12T04:32:34.693Z,6.80
2023-02-12T04:33:47.938Z,6.80
2023-02-12T04:34:53.366Z,6.70
2023-02-12T04:36:09.214Z,6.80
2023-02-12T04:37:34.890Z,6.70
2023-02-12T04:38:44.164Z,6.70
2023-02-12T04:39:47.496Z,6.70
2023-02-12T04:40:51.218Z,6.70
2023-02-12T04:41:53.755Z,6.70
2023-02-12T04:42:56.186Z,6.70
2023-02-12T04:43:58.669Z,6.70
2023-02-12T04:45:00.959Z,6.70
2023-02-12T04:46:05.921Z,6.70
2023-02-12T04:47:08.524Z,6.70
2023-02-12T04:48:12.008Z,6.70
2023-02-12T04:49:19.334Z,6.70
2023-02-12T04:50:21.994Z,6.70
2023-02-12T04:51:24.540Z,6.70
2023-02-12T04:52:26.907Z,6.70
2023-02-12T04:53:29.265Z,6.70
2023-02-12T04:54:31.658Z,6.70
2023-02-12T04:55:34.037Z,6.70
2023-02-12T04:56:36.559Z,6.70
2023-02-12T04:57:38.941Z,6.70
2023-02-12T04:58:41.884Z,6.70
2023-02-12T04:59:44.143Z,6.60
2023-02-12T05:00:46.373Z,6.70
2023-02-12T05:01:48.841Z,6.70
2023-02-12T05:02:51.248Z,6.60
2023-02-12T05:03:53.667Z,6.60
2023-02-12T05:04:55.944Z,6.60
2023-02-12T05:06:03.904Z,6.60
2023-02-12T05:07:06.284Z,6.60
2023-02-12T05:08:08.588Z,6.60
2023-02-12T05:09:14.912Z,6.60
2023-02-12T05:10:17.410Z,6.60
2023-02-12T05:11:20.016Z,6.60
2023-02-12T05:12:22.506Z,6.60
2023-02-12T05:13:24.822Z,6.60
2023-02-12T05:14:27.067Z,6.60
2023-02-12T05:15:29.440Z,6.50
2023-02-12T05:16:32.004Z,6.60
2023-02-12T05:17:37.684Z,6.50
2023-02-12T05:18:40.050Z,6.60
2023-02-12T05:19:42.316Z,6.50
2023-02-12T05:20:44.644Z,6.50
2023-02-12T05:21:49.453Z,6.50
2023-02-12T05:22:53.506Z,6.50
2023-02-12T05:23:55.761Z,6.50
2023-02-12T05:24:58.106Z,6.50
2023-02-12T05:26:02.743Z,6.50
2023-02-12T05:27:05.084Z,6.50
2023-02-12T05:28:07.442Z,6.50
2023-02-12T05:29:09.758Z,6.50
2023-02-12T05:30:12.437Z,6.50
2023-02-12T05:31:20.766Z,6.40
2023-02-12T05:32:24.124Z,6.40
2023-02-12T05:33:26.467Z,6.40
2023-02-12T05:34:29.373Z,6.40
2023-02-12T05:35:35.418Z,6.40
2023-02-12T05:36:37.929Z,6.40
2023-02-12T05:37:40.289Z,6.40
2023-02-12T05:38:43.281Z,6.40
2023-02-12T05:39:45.662Z,6.40
2023-02-12T05:40:48.150Z,6.40
2023-02-12T05:41:50.468Z,6.40
2023-02-12T05:42:52.816Z,6.40
2023-02-12T05:43:55.282Z,6.40
2023-02-12T05:44:57.589Z,6.40
2023-02-12T05:46:01.197Z,6.40
2023-02-12T05:47:03.531Z,6.40
2023-02-12T05:48:05.802Z,6.40
2023-02-12T05:49:08.953Z,6.40
2023-02-12T05:50:11.454Z,6.40
2023-02-12T05:51:25.230Z,6.40
2023-02-12T05:52:27.466Z,6.40
2023-02-12T05:53:30.203Z,6.40
2023-02-12T05:54:32.463Z,6.40
2023-02-12T05:55:34.710Z,6.40
2023-02-12T05:56:43.627Z,6.40
2023-02-12T05:57:46.049Z,6.40
2023-02-12T05:58:53.166Z,6.40
2023-02-12T05:59:55.569Z,6.40
2023-02-12T06:00:57.789Z,6.50
2023-02-12T06:02:00.099Z,6.40
2023-02-12T06:03:02.557Z,6.40
2023-02-12T06:04:07.270Z,6.40
2023-02-12T06:05:09.707Z,6.40
2023-02-12T06:06:12.636Z,6.40
2023-02-12T06:07:14.919Z,6.40
2023-02-12T06:08:17.193Z,6.50
2023-02-12T06:09:19.566Z,6.40
2023-02-12T06:10:21.961Z,6.50
2023-02-12T06:11:24.384Z,6.40
2023-02-12T06:12:26.846Z,6.40
2023-02-12T06:13:30.158Z,6.40
2023-02-12T06:14:32.580Z,6.50
2023-02-12T06:15:37.188Z,6.50
2023-02-12T06:16:39.511Z,6.50
2023-02-12T06:17:41.843Z,6.50
2023-02-12T06:18:44.167Z,6.50
2023-02-12T06:19:46.484Z,6.50
2023-02-12T06:20:49.042Z,6.50
2023-02-12T06:21:51.517Z,6.50
2023-02-12T06:22:53.771Z,6.50
2023-02-12T06:23:56.249Z,6.50
2023-02-12T06:24:58.571Z,6.50
2023-02-12T06:26:00.953Z,6.50
2023-02-12T06:27:03.408Z,6.50
2023-02-12T06:28:05.777Z,6.50
2023-02-12T06:29:08.122Z,6.50
2023-02-12T06:30:11.179Z,6.50
2023-02-12T06:31:20.507Z,6.50
2023-02-12T06:32:23.023Z,6.50
2023-02-12T06:33:25.300Z,6.50
2023-02-12T06:34:27.871Z,6.50
2023-02-12T06:35:30.126Z,6.50
2023-02-12T06:36:32.471Z,6.50
2023-02-12T06:37:37.151Z,6.50
2023-02-12T06:38:39.653Z,6.50
2023-02-12T06:39:41.950Z,6.60
2023-02-12T06:40:44.388Z,6.50
2023-02-12T06:41:46.713Z,6.60
2023-02-12T06:42:50.352Z,6.50
2023-02-12T06:43:52.744Z,6.50
2023-02-12T06:44:55.045Z,6.60
2023-02-12T06:46:01.041Z,6.60
2023-02-12T06:47:03.323Z,6.60
2023-02-12T06:48:06.062Z,6.50
2023-02-12T06:49:08.609Z,6.60
2023-02-12T06:50:11.278Z,6.60
2023-02-12T06:51:18.745Z,6.60
2023-02-12T06:52:21.674Z,6.60
2023-02-12T06:53:23.915Z,6.60
2023-02-12T06:54:26.195Z,6.60
2023-02-12T06:55:28.536Z,6.60
2023-02-12T06:56:30.801Z,6.60
2023-02-12T06:57:33.233Z,6.60
2023-02-12T06:58:35.464Z,6.50
2023-02-12T06:59:37.864Z,6.60
2023-02-12T07:00:40.230Z,6.60
2023-02-12T07:01:42.904Z,6.60
2023-02-12T07:02:45.254Z,6.60
2023-02-12T07:03:55.113Z,6.60
2023-02-12T07:04:57.360Z,6.60
2023-02-12T07:05:59.659Z,6.60
2023-02-12T07:07:01.903Z,6.60
2023-02-12T07:08:04.333Z,6.60
2023-02-12T07:09:06.718Z,6.70
2023-02-12T07:10:09.781Z,6.70
2023-02-12T07:11:12.721Z,6.70
2023-02-12T07:12:14.986Z,6.70
2023-02-12T07:13:17.232Z,6.70
2023-02-12T07:14:19.513Z,6.70
2023-02-12T07:15:21.789Z,6.70
2023-02-12T07:16:24.210Z,6.70
2023-02-12T07:17:26.585Z,6.80
2023-02-12T07:18:28.860Z,6.80
2023-02-12T07:19:31.275Z,6.80
2023-02-12T07:20:33.777Z,6.80
2023-02-12T07:21:36.025Z,6.80
2023-02-12T07:22:38.397Z,6.80
2023-02-12T07:23:41.311Z,6.80
2023-02-12T07:24:43.638Z,6.80
2023-02-12T07:25:58.259Z,6.80
2023-02-12T07:27:00.574Z,6.80
2023-02-12T07:28:02.880Z,6.80
2023-02-12T07:29:05.295Z,6.90
2023-02-12T07:30:08.433Z,6.90
2023-02-12T07:31:22.388Z,6.90
2023-02-12T07:32:24.791Z,6.90
2023-02-12T07:33:27.043Z,6.90
2023-02-12T07:34:30.168Z,6.90
2023-02-12T07:35:32.428Z,7.00
2023-02-12T07:36:34.724Z,7.00
2023-02-12T07:37:37.093Z,7.00
2023-02-12T07:38:42.527Z,7.00
2023-02-12T07:39:44.799Z,7.00
2023-02-12T07:40:47.095Z,7.00
2023-02-12T07:41:49.550Z,7.00
2023-02-12T07:42:55.878Z,7.00
2023-02-12T07:44:07.659Z,7.00
2023-02-12T07:45:10.363Z,7.10
2023-02-12T07:46:21.374Z,7.10
2023-02-12T07:47:23.670Z,7.10
2023-02-12T07:48:25.902Z,7.10
2023-02-12T07:49:28.145Z,7.10
2023-02-12T07:50:30.502Z,7.20
2023-02-12T07:51:37.099Z,7.20
2023-02-12T07:52:39.362Z,7.20
2023-02-12T07:53:42.329Z,7.20
2023-02-12T07:54:44.654Z,7.20
2023-02-12T07:55:46.922Z,7.20
2023-02-12T07:56:50.965Z,7.30
2023-02-12T07:57:53.194Z,7.30
2023-02-12T07:58:55.516Z,7.30
2023-02-12T07:59:57.816Z,7.30
2023-02-12T08:01:00.042Z,7.30
2023-02-12T08:02:02.372Z,7.30
2023-02-12T08:03:04.612Z,7.40
2023-02-12T08:04:13.411Z,7.40
2023-02-12T08:05:15.832Z,7.40
2023-02-12T08:06:21.209Z,7.30
2023-02-12T08:07:23.806Z,7.40
2023-02-12T08:08:26.046Z,7.40
2023-02-12T08:09:30.873Z,7.50
2023-02-12T08:10:33.258Z,7.50
2023-02-12T08:11:37.491Z,7.50
2023-02-12T08:12:39.860Z,7.50
2023-02-12T08:13:42.262Z,7.50
2023-02-12T08:14:44.955Z,7.50
2023-02-12T08:15:47.290Z,7.60
2023-02-12T08:16:50.856Z,7.60
2023-02-12T08:17:54.529Z,7.60
2023-02-12T08:19:07.197Z,7.60
2023-02-12T08:20:17.103Z,7.60
2023-02-12T08:21:22.217Z,7.70
2023-02-12T08:22:24.451Z,7.70
2023-02-12T08:23:26.664Z,7.70
2023-02-12T08:24:30.143Z,7.70
2023-02-12T08:25:32.473Z,7.70
2023-02-12T08:26:37.761Z,7.80
2023-02-12T08:27:42.152Z,7.80
2023-02-12T08:28:53.816Z,7.80
2023-02-12T08:29:56.094Z,7.80
2023-02-12T08:31:03.275Z,7.90
2023-02-12T08:32:07.205Z,7.90
2023-02-12T08:33:09.560Z,7.90
2023-02-12T08:34:18.883Z,7.90
2023-02-12T08:35:21.164Z,7.90
2023-02-12T08:36:29.600Z,8.00
2023-02-12T08:37:31.819Z,8.00
2023-02-12T08:38:34.390Z,8.00
2023-02-12T08:39:36.608Z,8.00
2023-02-12T08:40:38.975Z,8.10
2023-02-12T08:41:44.196Z,8.10
2023-02-12T08:42:46.468Z,8.10
2023-02-12T08:43:49.832Z,8.10
2023-02-12T08:44:52.088Z,8.10
2023-02-12T08:45:55.394Z,8.10
2023-02-12T08:46:58.016Z,8.20
2023-02-12T08:48:00.282Z,8.20
2023-02-12T08:49:06.044Z,8.20
2023-02-12T08:50:08.794Z,8.20
2023-02-12T08:51:16.616Z,8.20
2023-02-12T08:52:19.733Z,8.20
2023-02-12T08:53:22.012Z,8.30
2023-02-12T08:54:26.977Z,8.30
2023-02-12T08:55:29.223Z,8.30
2023-02-12T08:56:33.489Z,8.30
2023-02-12T08:57:35.937Z,8.30
2023-02-12T08:58:38.570Z,8.30
2023-02-12T08:59:40.776Z,8.30
2023-02-12T09:00:43.230Z,8.30
2023-02-12T09:01:45.685Z,8.40
2023-02-12T09:02:49.304Z,8.40
2023-02-12T09:03:52.671Z,8.40
2023-02-12T09:04:55.010Z,8.40
2023-02-12T09:05:57.593Z,8.40
2023-02-12T09:07:00.099Z,8.40
2023-02-12T09:08:02.360Z,8.40
2023-02-12T09:09:04.796Z,8.50
2023-02-12T09:10:07.764Z,8.50
2023-02-12T09:11:24.455Z,8.50
2023-02-12T09:12:26.703Z,8.50
2023-02-12T09:13:28.905Z,8.60
2023-02-12T09:14:31.161Z,8.60
2023-02-12T09:15:44.981Z,8.60
2023-02-12T09:16:47.473Z,8.60
2023-02-12T09:17:49.815Z,8.70
2023-02-12T09:18:52.162Z,8.70
2023-02-12T09:19:54.852Z,8.70
2023-02-12T09:21:08.476Z,8.70
2023-02-12T09:22:10.777Z,8.70
2023-02-12T09:23:14.622Z,8.70
2023-02-12T09:24:16.838Z,8.70
2023-02-12T09:25:19.076Z,8.80
2023-02-12T09:26:25.862Z,8.80
2023-02-12T09:27:31.028Z,8.80
2023-02-12T09:28:34.555Z,8.90
2023-02-12T09:29:36.908Z,8.90
2023-02-12T09:30:40.252Z,8.90
2023-02-12T09:31:42.658Z,9.00
2023-02-12T09:32:45.074Z,9.00
2023-02-12T09:33:50.527Z,9.10
2023-02-12T09:34:54.003Z,9.10
2023-02-12T09:35:56.511Z,9.10
2023-02-12T09:36:58.984Z,9.20
2023-02-12T09:38:01.284Z,9.20
2023-02-12T09:39:05.625Z,9.20
2023-02-12T09:40:08.560Z,9.20
2023-02-12T09:41:35.332Z,9.20
2023-02-12T09:43:07.117Z,9.20
2023-02-12T09:44:12.022Z,9.20
2023-02-12T09:45:21.742Z,9.20
2023-02-12T09:46:45.384Z,9.10
2023-02-12T09:48:08.307Z,9.10
2023-02-12T09:49:19.180Z,9.10
2023-02-12T09:50:35.013Z,9.00
2023-02-12T09:51:40.181Z,9.10
2023-02-12T09:52:43.158Z,9.10
2023-02-12T09:53:48.006Z,9.10
2023-02-12T09:54:51.231Z,9.10
2023-02-12T09:55:54.794Z,9.20
2023-02-12T09:57:00.204Z,9.10
2023-02-12T09:58:20.113Z,9.20
2023-02-12T09:59:35.382Z,9.20
2023-02-12T10:00:37.614Z,9.20
2023-02-12T10:01:39.925Z,9.30
2023-02-12T10:02:42.372Z,9.30
2023-02-12T10:03:46.414Z,9.40
2023-02-12T10:05:00.778Z,9.40
2023-02-12T10:06:07.834Z,9.50
2023-02-12T10:07:23.917Z,9.60
2023-02-12T10:08:58.881Z,9.60
2023-02-12T10:10:21.930Z,9.60
2023-02-12T10:11:33.461Z,9.70
2023-02-12T10:13:04.106Z,9.80
2023-02-12T10:14:35.175Z,9.80
2023-02-12T10:16:04.700Z,9.90
2023-02-12T10:17:23.167Z,9.90
2023-02-12T10:19:02.028Z,10.00
2023-02-12T10:20:12.942Z,10.10
2023-02-12T10:21:33.169Z,10.10
2023-02-12T10:22:55.020Z,10.10
2023-02-12T10:24:39.393Z,10.10
2023-02-12T10:25:54.491Z,10.10
2023-02-12T10:27:02.391Z,10.10
2023-02-12T10:28:38.814Z,10.10
2023-02-12T10:29:43.761Z,10.00
2023-02-12T10:31:00.067Z,10.00
2023-02-12T10:32:07.799Z,9.90
2023-02-12T10:33:31.847Z,9.80
2023-02-12T10:34:36.781Z,9.80
2023-02-12T10:35:45.647Z,9.70
2023-02-12T10:36:50.203Z,9.70
2023-02-12T10:38:06.370Z,9.70
2023-02-12T10:39:12.915Z,9.70
2023-02-12T10:40:26.379Z,9.70
2023-02-12T10:41:31.478Z,9.70
2023-02-12T10:42:42.849Z,9.70
2023-02-12T10:43:45.384Z,9.70
2023-02-12T10:44:47.802Z,9.60
2023-02-12T10:45:50.986Z,9.80
2023-02-12T10:46:53.647Z,9.80
2023-02-12T10:48:14.624Z,9.80
2023-02-12T10:49:19.337Z,9.90
2023-02-12T10:50:58.734Z,10.00
2023-02-12T10:52:35.384Z,10.00
2023-02-12T10:53:45.463Z,10.10
2023-02-12T10:54:51.623Z,10.20
2023-02-12T10:56:21.195Z,10.20
2023-02-12T10:57:38.352Z,10.30
2023-02-12T10:58:50.803Z,10.30
2023-02-12T10:59:57.260Z,10.30
2023-02-12T11:01:01.171Z,10.40
2023-02-12T11:02:05.432Z,10.40
2023-02-12T11:03:13.231Z,10.40
2023-02-12T11:04:32.895Z,10.40
2023-02-12T11:05:37.742Z,10.40
2023-02-12T11:06:39.998Z,10.40
2023-02-12T11:07:51.681Z,10.40
2023-02-12T11:08:54.486Z,10.40
2023-02-12T11:09:57.664Z,10.40
2023-02-12T11:11:20.334Z,10.30
2023-02-12T11:12:48.125Z,10.30
2023-02-12T11:14:17.598Z,10.20
2023-02-12T11:15:25.323Z,10.20
2023-02-12T11:16:33.806Z,10.10
2023-02-12T11:17:42.441Z,10.00
2023-02-12T11:18:44.856Z,10.00
2023-02-12T11:20:16.921Z,10.00
2023-02-12T11:21:23.639Z,9.90
2023-02-12T11:22:26.007Z,9.80
2023-02-12T11:23:37.059Z,9.80
2023-02-12T11:24:39.426Z,9.80
2023-02-12T11:25:56.587Z,9.80
2023-02-12T11:27:16.891Z,9.90
2023-02-12T11:28:19.852Z,9.80
2023-02-12T11:29:24.602Z,9.90
2023-02-12T11:30:27.383Z,9.90
2023-02-12T11:31:35.360Z,9.90
2023-02-12T11:32:38.159Z,9.80
2023-02-12T11:33:40.497Z,9.80
2023-02-12T11:34:42.777Z,9.80
2023-02-12T11:36:06.703Z,9.80
2023-02-12T11:37:18.821Z,9.80
2023-02-12T11:38:31.826Z,9.80
2023-02-12T11:39:39.666Z,9.80
2023-02-12T11:40:47.521Z,9.80
2023-02-12T11:41:54.277Z,9.80
2023-02-12T11:43:03.665Z,9.80
2023-02-12T11:44:19.949Z,9.80
2023-02-12T11:45:35.410Z,9.80
2023-02-12T11:46:38.300Z,9.70
2023-02-12T11:47:41.169Z,9.70
2023-02-12T11:48:47.558Z,9.70
2023-02-12T11:50:25.313Z,9.70
2023-02-12T11:51:31.467Z,9.70
2023-02-12T11:52:40.059Z,9.60
2023-02-12T11:53:47.360Z,9.60
2023-02-12T11:54:53.431Z,9.50
2023-02-12T11:56:00.069Z,9.50
2023-02-12T11:57:02.738Z,9.50
2023-02-12T11:58:26.028Z,9.50
2023-02-12T11:59:43.059Z,9.50
2023-02-12T12:00:56.978Z,9.50
2023-02-12T12:02:06.270Z,9.50
2023-02-12T12:03:14.794Z,9.50
2023-02-12T12:04:20.591Z,9.50
2023-02-12T12:05:29.270Z,9.50
2023-02-12T12:07:05.260Z,9.50
2023-02-12T12:08:16.816Z,9.60
2023-02-12T12:09:42.908Z,9.70
2023-02-12T12:10:50.936Z,9.70
2023-02-12T12:12:05.313Z,9.80
2023-02-12T12:13:16.699Z,9.80
2023-02-12T12:14:27.757Z,9.90
2023-02-12T12:15:57.551Z,10.00
2023-02-12T12:17:39.634Z,10.00
2023-02-12T12:19:05.979Z,10.20
2023-02-12T12:20:20.953Z,10.10
2023-02-12T12:21:38.042Z,10.20
2023-02-12T12:22:54.607Z,10.30
2023-02-12T12:24:06.865Z,10.40
2023-02-12T12:25:20.599Z,10.40
2023-02-12T12:26:26.874Z,10.40
2023-02-12T12:28:00.474Z,10.40
2023-02-12T12:29:26.574Z,10.40
2023-02-12T12:30:43.527Z,10.40
2023-02-12T12:31:57.848Z,10.40
2023-02-12T12:33:03.730Z,10.40
2023-02-12T12:34:21.913Z,10.40
2023-02-12T12:35:37.525Z,10.40
2023-02-12T12:36:42.411Z,10.40
2023-02-12T12:37:58.013Z,10.40
2023-02-12T12:39:03.035Z,10.40
2023-02-12T12:40:14.510Z,10.40
2023-02-12T12:41:48.068Z,10.40
2023-02-12T12:43:11.294Z,10.40
2023-02-12T12:44:32.204Z,10.40
2023-02-12T12:46:06.256Z,10.40
2023-02-12T12:47:29.984Z,10.40
2023-02-12T12:48:56.047Z,10.40
2023-02-12T12:50:24.957Z,10.50
2023-02-12T12:52:15.060Z,10.50
2023-02-12T12:53:47.983Z,10.50
2023-02-12T12:55:14.169Z,10.50
2023-02-12T12:56:29.374Z,10.60
2023-02-12T12:58:01.557Z,10.60
2023-02-12T12:59:35.728Z,10.60
2023-02-12T13:00:44.081Z,10.60
2023-02-12T13:01:53.575Z,10.60
2023-02-12T13:03:10.964Z,10.60
2023-02-12T13:04:29.072Z,10.60
2023-02-12T13:05:58.039Z,10.60
2023-02-12T13:07:11.354Z,10.60
2023-02-12T13:08:47.508Z,10.50
2023-02-12T13:10:14.370Z,10.50
2023-02-12T13:11:39.174Z,10.40
2023-02-12T13:12:56.473Z,10.40
2023-02-12T13:14:24.266Z,10.30
2023-02-12T13:15:32.766Z,10.30
2023-02-12T13:16:45.312Z,10.20
2023-02-12T13:18:23.299Z,10.20
2023-02-12T13:19:35.982Z,10.20
2023-02-12T13:20:56.417Z,10.20
2023-02-12T13:22:21.736Z,10.20
2023-02-12T13:23:38.582Z,10.20
2023-02-12T13:25:01.448Z,10.20
2023-02-12T13:26:30.603Z,10.20
2023-02-12T13:27:40.429Z,10.20
2023-02-12T13:28:51.788Z,10.20
2023-02-12T13:30:18.959Z,10.10
2023-02-12T13:31:33.185Z,10.10
2023-02-12T13:32:46.326Z,10.00
2023-02-12T13:33:58.659Z,10.00
2023-02-12T13:35:02.920Z,10.00
2023-02-12T13:36:08.159Z,10.00
2023-02-12T13:37:20.539Z,10.00
2023-02-12T13:38:34.493Z,10.00
2023-02-12T13:39:41.674Z,10.00
2023-02-12T13:40:44.431Z,10.00
2023-02-12T13:42:04.950Z,10.10
2023-02-12T13:43:17.895Z,10.10
2023-02-12T13:44:31.677Z,10.20
2023-02-12T13:45:39.824Z,10.30
2023-02-12T13:46:55.695Z,10.30
2023-02-12T13:48:34.894Z,10.30
2023-02-12T13:50:16.769Z,10.30
2023-02-12T13:51:44.347Z,10.30
2023-02-12T13:52:56.855Z,10.30
2023-02-12T13:54:17.214Z,10.30
2023-02-12T13:55:41.551Z,10.30
2023-02-12T13:56:46.963Z,10.30
2023-02-12T13:58:26.293Z,10.30
2023-02-12T13:59:37.019Z,10.30
2023-02-12T14:00:47.906Z,10.20
2023-02-12T14:01:51.471Z,10.20
2023-02-12T14:02:53.912Z,10.20
2023-02-12T14:03:56.226Z,10.20
2023-02-12T14:05:18.802Z,10.20
2023-02-12T14:06:22.023Z,10.20
2023-02-12T14:07:26.873Z,10.20
2023-02-12T14:08:36.973Z,10.20
2023-02-12T14:10:01.320Z,10.20
2023-02-12T14:11:19.353Z,10.30
2023-02-12T14:12:24.653Z,10.30
2023-02-12T14:13:28.874Z,10.40
2023-02-12T14:14:41.258Z,10.30
2023-02-12T14:15:51.647Z,10.40
2023-02-12T14:16:54.167Z,10.40
2023-02-12T14:18:04.356Z,10.40
2023-02-12T14:19:38.430Z,10.40
2023-02-12T14:20:42.137Z,10.50
2023-02-12T14:21:44.505Z,10.50
2023-02-12T14:22:49.753Z,10.50
2023-02-12T14:23:53.027Z,10.50
2023-02-12T14:25:00.637Z,10.60
2023-02-12T14:26:06.662Z,10.50
2023-02-12T14:27:36.269Z,10.60
2023-02-12T14:28:53.051Z,10.60
2023-02-12T14:30:21.507Z,10.60
2023-02-12T14:31:26.781Z,10.60
2023-02-12T14:32:50.050Z,10.70
2023-02-12T14:34:16.705Z,10.60
2023-02-12T14:35:30.771Z,10.60
2023-02-12T14:36:32.965Z,10.60
2023-02-12T14:37:38.095Z,10.60
2023-02-12T14:38:47.470Z,10.60
2023-02-12T14:39:50.341Z,10.60
2023-02-12T14:40:54.125Z,10.60
2023-02-12T14:42:16.285Z,10.60
2023-02-12T14:43:57.235Z,10.60
2023-02-12T14:44:59.537Z,10.60
2023-02-12T14:46:23.370Z,10.50
2023-02-12T14:47:31.299Z,10.50
2023-02-12T14:48:51.870Z,10.50
2023-02-12T14:49:55.985Z,10.40
2023-02-12T14:51:01.721Z,10.40
2023-02-12T14:52:17.705Z,10.40
2023-02-12T14:53:34.751Z,10.30
2023-02-12T14:54:58.746Z,10.30
2023-02-12T14:56:02.712Z,10.30
2023-02-12T14:57:27.376Z,10.30
2023-02-12T14:58:32.806Z,10.20
2023-02-12T14:59:40.723Z,10.20
2023-02-12T15:00:47.449Z,10.20
2023-02-12T15:01:51.578Z,10.20
2023-02-12T15:03:15.325Z,10.20
2023-02-12T15:04:31.500Z,10.20
2023-02-12T15:05:39.588Z,10.10
2023-02-12T15:07:01.132Z,10.10
2023-02-12T15:08:12.090Z,10.10
2023-02-12T15:09:25.115Z,10.10
2023-02-12T15:10:35.634Z,10.10
2023-02-12T15:11:59.083Z,10.00
2023-02-12T15:13:30.828Z,10.00